createdAt,value
2022-12-23T00:01:14.145Z,12.07
2022-12-23T00:03:41.310Z,8.90
2022-12-23T00:06:10.465Z,11.65
2022-12-23T00:08:37.460Z,8.15
2022-12-23T00:11:06.939Z,10.07
2022-12-23T00:13:51.825Z,12.85
2022-12-23T00:16:18.451Z,11.68
2022-12-23T00:18:45.059Z,24.15
2022-12-23T00:21:14.617Z,20.15
2022-12-23T00:23:44.034Z,16.38
2022-12-23T00:26:16.386Z,16.67
2022-12-23T00:28:43.354Z,18.85
2022-12-23T00:31:11.205Z,16.75
2022-12-23T00:33:40.596Z,23.98
2022-12-23T00:36:18.038Z,21.30
2022-12-23T00:39:04.249Z,27.50
2022-12-23T00:41:49.845Z,33.80
2022-12-23T00:44:16.468Z,21.55
2022-12-23T00:46:43.050Z,16.25
2022-12-23T00:49:32.052Z,18.30
2022-12-23T00:51:59.276Z,11.77
2022-12-23T00:54:26.051Z,11.05
2022-12-23T00:56:52.948Z,16.67
2022-12-23T00:59:19.653Z,11.50
2022-12-23T01:02:05.642Z,9.23
2022-12-23T01:04:51.098Z,10.85
2022-12-23T01:07:17.792Z,13.68
2022-12-23T01:09:44.440Z,14.63
2022-12-23T01:12:11.005Z,11.13
2022-12-23T01:14:37.720Z,27.33
2022-12-23T01:17:06.671Z,14.27
2022-12-23T01:19:33.809Z,10.07
2022-12-23T01:22:00.443Z,9.30
2022-12-23T01:24:31.899Z,9.70
2022-12-23T01:26:58.774Z,10.02
2022-12-23T01:29:25.873Z,10.15
2022-12-23T01:31:52.498Z,11.18
2022-12-23T01:34:19.462Z,9.40
2022-12-23T01:36:46.052Z,11.65
2022-12-23T01:39:12.708Z,9.80
2022-12-23T01:41:58.000Z,9.05
2022-12-23T01:44:57.702Z,7.22
2022-12-23T01:47:33.530Z,6.25
2022-12-23T01:50:06.466Z,8.35
2022-12-23T01:52:37.835Z,8.43
2022-12-23T01:55:05.021Z,8.32
2022-12-23T01:57:31.724Z,9.45
2022-12-23T02:00:36.649Z,10.23
2022-12-23T02:03:21.779Z,8.63
2022-12-23T02:05:48.755Z,8.00
2022-12-23T02:08:35.750Z,8.05
2022-12-23T02:11:12.593Z,7.30
2022-12-23T02:14:16.536Z,7.78
2022-12-23T02:16:55.132Z,7.47
2022-12-23T02:19:45.983Z,7.30
2022-12-23T02:22:32.287Z,9.40
2022-12-23T02:24:58.882Z,11.18
2022-12-23T02:27:27.526Z,10.98
2022-12-23T02:30:28.415Z,9.77
2022-12-23T02:33:03.163Z,10.13
2022-12-23T02:36:04.954Z,10.02
2022-12-23T02:39:14.407Z,8.98
2022-12-23T02:41:59.045Z,7.65
2022-12-23T02:45:01.192Z,7.93
2022-12-23T02:47:39.680Z,9.68
2022-12-23T02:50:11.870Z,10.10
2022-12-23T02:52:41.301Z,8.27
2022-12-23T02:55:16.352Z,8.60
2022-12-23T02:57:46.988Z,7.65
2022-12-23T03:00:15.212Z,10.10
2022-12-23T03:02:43.539Z,8.73
2022-12-23T03:05:32.566Z,8.80
2022-12-23T03:08:03.281Z,10.48
2022-12-23T03:11:04.392Z,9.48
2022-12-23T03:14:08.375Z,9.90
2022-12-23T03:17:13.246Z,10.00
2022-12-23T03:19:51.505Z,9.77
2022-12-23T03:22:26.261Z,11.55
2022-12-23T03:25:00.225Z,21.33
2022-12-23T03:27:41.111Z,16.63
2022-12-23T03:30:29.331Z,16.52
2022-12-23T03:33:01.959Z,14.65
2022-12-23T03:35:36.963Z,16.88
2022-12-23T03:38:04.742Z,13.38
2022-12-23T03:40:41.649Z,11.73
2022-12-23T03:43:18.636Z,10.00
2022-12-23T03:45:51.388Z,9.90
2022-12-23T03:48:38.579Z,9.43
2022-12-23T03:51:13.711Z,17.23
2022-12-23T03:53:47.276Z,16.65
2022-12-23T03:56:19.102Z,19.85
2022-12-23T03:58:58.127Z,24.58
2022-12-23T04:01:50.513Z,31.77
2022-12-23T04:04:29.352Z,25.20
2022-12-23T04:07:00.929Z,19.10
2022-12-23T04:09:29.140Z,15.55
2022-12-23T04:11:58.292Z,15.65
2022-12-23T04:14:24.861Z,13.25
2022-12-23T04:16:55.533Z,12.52
2022-12-23T04:19:22.404Z,16.13
2022-12-23T04:21:48.968Z,12.32
2022-12-23T04:24:15.668Z,14.98
2022-12-23T04:26:42.214Z,11.95
2022-12-23T04:29:08.775Z,9.95
2022-12-23T04:31:35.395Z,7.18
2022-12-23T04:34:02.075Z,7.57
2022-12-23T04:36:28.610Z,6.22
2022-12-23T04:38:55.228Z,8.30
2022-12-23T04:41:21.883Z,8.73
2022-12-23T04:43:52.994Z,9.25
2022-12-23T04:46:20.739Z,10.40
2022-12-23T04:48:47.443Z,11.30
2022-12-23T04:51:14.167Z,13.30
2022-12-23T04:53:40.768Z,11.98
2022-12-23T04:56:07.445Z,15.85
2022-12-23T04:58:34.099Z,19.83
2022-12-23T05:01:05.734Z,23.70
2022-12-23T05:03:33.122Z,23.63
2022-12-23T05:05:59.832Z,22.25
2022-12-23T05:08:26.454Z,22.10
2022-12-23T05:10:53.059Z,20.85
2022-12-23T05:13:19.655Z,21.00
2022-12-23T05:15:48.990Z,18.90
2022-12-23T05:18:16.185Z,20.35
2022-12-23T05:20:43.021Z,24.38
2022-12-23T05:23:10.091Z,20.15
2022-12-23T05:25:37.898Z,27.55
2022-12-23T05:28:06.089Z,36.92
2022-12-23T05:30:32.660Z,33.45
2022-12-23T05:32:59.260Z,49.88
2022-12-23T05:35:27.143Z,42.25
2022-12-23T05:37:54.247Z,38.50
2022-12-23T05:40:25.069Z,35.90
2022-12-23T05:42:56.130Z,31.85
2022-12-23T05:45:23.058Z,30.65
2022-12-23T05:47:49.604Z,31.77
2022-12-23T05:50:16.256Z,35.28
2022-12-23T05:52:42.874Z,34.03
2022-12-23T05:55:09.641Z,37.35
2022-12-23T05:57:36.260Z,33.90
2022-12-23T06:00:04.156Z,30.70
2022-12-23T06:02:31.085Z,17.77
2022-12-23T06:04:57.881Z,14.77
2022-12-23T06:07:24.426Z,9.55
2022-12-23T06:09:50.961Z,9.18
2022-12-23T06:12:17.573Z,17.33
2022-12-23T06:14:44.210Z,20.58
2022-12-23T06:17:10.772Z,24.35
2022-12-23T06:19:37.403Z,17.70
2022-12-23T06:22:03.994Z,30.58
2022-12-23T06:24:30.639Z,26.10
2022-12-23T06:26:57.671Z,28.67
2022-12-23T06:29:25.052Z,22.35
2022-12-23T06:31:51.811Z,26.13
2022-12-23T06:34:18.543Z,27.38
2022-12-23T06:36:45.129Z,30.63
2022-12-23T06:39:11.885Z,31.92
2022-12-23T06:41:38.515Z,26.95
2022-12-23T06:44:05.394Z,29.08
2022-12-23T06:46:32.210Z,29.48
2022-12-23T06:48:58.838Z,32.25
2022-12-23T06:51:25.409Z,34.92
2022-12-23T06:53:51.989Z,34.08
2022-12-23T06:56:18.871Z,34.38
2022-12-23T06:58:45.557Z,37.13
2022-12-23T07:01:12.310Z,39.78
2022-12-23T07:03:39.034Z,39.38
2022-12-23T07:06:05.948Z,45.33
2022-12-23T07:08:32.549Z,57.83
2022-12-23T07:11:03.560Z,66.65
2022-12-23T07:13:30.883Z,64.43
2022-12-23T07:15:58.023Z,63.65
2022-12-23T07:18:25.694Z,51.55
2022-12-23T07:20:52.709Z,72.47
2022-12-23T07:23:19.349Z,70.25
2022-12-23T07:25:45.917Z,58.60
2022-12-23T07:28:12.492Z,37.40
2022-12-23T07:30:39.115Z,27.77
2022-12-23T07:33:05.701Z,28.83
2022-12-23T07:35:32.297Z,19.02
2022-12-23T07:37:58.862Z,19.73
2022-12-23T07:40:26.404Z,20.20
2022-12-23T07:42:58.505Z,23.83
2022-12-23T07:45:26.283Z,18.05
2022-12-23T07:47:56.412Z,24.25
2022-12-23T07:50:23.829Z,63.70
2022-12-23T07:52:51.209Z,38.88
2022-12-23T07:55:17.898Z,26.23
2022-12-23T07:57:48.445Z,20.60
2022-12-23T08:00:15.428Z,19.92
2022-12-23T08:02:42.748Z,18.05
2022-12-23T08:05:10.258Z,15.57
2022-12-23T08:07:37.006Z,14.75
2022-12-23T08:10:04.883Z,12.23
2022-12-23T08:12:31.596Z,15.05
2022-12-23T08:14:58.297Z,12.77
2022-12-23T08:17:30.058Z,15.80
2022-12-23T08:19:57.244Z,17.05
2022-12-23T08:22:24.351Z,18.95
2022-12-23T08:24:51.066Z,17.08
2022-12-23T08:27:17.721Z,17.40
2022-12-23T08:29:44.588Z,18.88
2022-12-23T08:32:11.194Z,17.90
2022-12-23T08:34:38.122Z,18.40
2022-12-23T08:37:04.700Z,16.65
2022-12-23T08:39:31.533Z,16.95
2022-12-23T08:41:58.149Z,14.18
2022-12-23T08:44:27.927Z,13.93
2022-12-23T08:46:55.132Z,10.50
2022-12-23T08:49:21.806Z,11.55
2022-12-23T08:51:49.022Z,12.68
2022-12-23T08:54:16.032Z,17.05
2022-12-23T08:56:43.443Z,16.10
2022-12-23T08:59:18.755Z,20.63
2022-12-23T09:01:46.973Z,19.80
2022-12-23T09:04:13.708Z,15.02
2022-12-23T09:06:42.264Z,15.93
2022-12-23T09:09:11.620Z,15.60
2022-12-23T09:11:38.883Z,20.42
2022-12-23T09:14:06.667Z,13.07
2022-12-23T09:16:33.303Z,10.73
2022-12-23T09:18:59.970Z,12.23
2022-12-23T09:21:26.887Z,9.40
2022-12-23T09:23:53.540Z,8.52
2022-12-23T09:26:28.782Z,32.83
2022-12-23T09:28:56.424Z,84.07
2022-12-23T09:31:23.758Z,24.63
2022-12-23T09:33:53.464Z,23.98
2022-12-23T09:36:20.866Z,14.20
2022-12-23T09:38:47.622Z,16.17
2022-12-23T09:41:20.120Z,13.13
2022-12-23T09:44:22.527Z,14.02
2022-12-23T09:47:04.634Z,11.60
2022-12-23T09:49:33.879Z,13.88
2022-12-23T09:52:05.158Z,11.25
2022-12-23T09:55:01.333Z,6.85
2022-12-23T09:57:48.287Z,9.50
2022-12-23T10:00:17.059Z,11.68
2022-12-23T10:03:11.961Z,12.35
2022-12-23T10:06:00.417Z,49.20
2022-12-23T10:08:32.779Z,13.20
2022-12-23T10:11:25.301Z,12.25
2022-12-23T10:14:03.296Z,17.50
2022-12-23T10:16:39.640Z,18.30
2022-12-23T10:19:26.286Z,13.93
2022-12-23T10:22:00.692Z,27.15
2022-12-23T10:24:35.268Z,12.85
2022-12-23T10:27:23.625Z,26.05
2022-12-23T10:29:50.651Z,17.48
2022-12-23T10:32:17.226Z,16.40
2022-12-23T10:35:15.733Z,15.00
2022-12-23T10:37:55.420Z,29.23
2022-12-23T10:40:41.469Z,9.32
2022-12-23T10:43:39.493Z,30.15
2022-12-23T10:46:57.292Z,28.02
2022-12-23T10:49:29.618Z,31.45
2022-12-23T10:52:03.565Z,19.92
2022-12-23T10:54:34.897Z,13.32
2022-12-23T10:57:04.183Z,10.18
2022-12-23T10:59:35.765Z,6.72
2022-12-23T11:02:12.517Z,6.80
2022-12-23T11:04:44.768Z,7.53
2022-12-23T11:07:43.610Z,13.35
2022-12-23T11:10:13.302Z,7.28
2022-12-23T11:12:43.175Z,8.40
2022-12-23T11:15:38.489Z,6.70
2022-12-23T11:18:14.255Z,14.18
2022-12-23T11:20:43.619Z,14.38
2022-12-23T11:23:35.974Z,6.05
2022-12-23T11:26:07.115Z,5.87
2022-12-23T11:28:37.454Z,8.30
2022-12-23T11:31:11.840Z,5.15
2022-12-23T11:33:45.598Z,4.15
2022-12-23T11:38:52.530Z,5.43
2022-12-23T11:41:33.748Z,7.25
2022-12-23T11:44:18.650Z,8.35
2022-12-23T11:46:45.359Z,7.13
2022-12-23T11:49:26.873Z,5.53
2022-12-23T11:52:01.858Z,10.02
2022-12-23T11:54:28.944Z,10.57
2022-12-23T11:56:56.162Z,10.30
2022-12-23T11:59:33.817Z,10.13
2022-12-23T12:02:03.760Z,15.10
2022-12-23T12:04:34.806Z,9.23
2022-12-23T12:07:03.516Z,8.48
2022-12-23T12:09:32.087Z,7.60
2022-12-23T12:12:15.127Z,8.68
2022-12-23T12:14:48.740Z,8.15
2022-12-23T12:17:21.477Z,7.25
2022-12-23T12:19:58.521Z,6.07
2022-12-23T12:22:34.837Z,5.97
2022-12-23T12:25:12.407Z,17.60
2022-12-23T12:27:40.416Z,9.30
2022-12-23T12:30:16.032Z,9.95
2022-12-23T12:33:05.642Z,6.65
2022-12-23T12:35:44.470Z,5.78
2022-12-23T12:38:21.755Z,6.38
2022-12-23T12:40:52.256Z,5.78
2022-12-23T12:43:32.527Z,5.47
2022-12-23T12:46:11.053Z,4.80
2022-12-23T12:48:39.007Z,6.47
2022-12-23T12:51:16.070Z,10.90
2022-12-23T12:53:52.635Z,5.88
2022-12-23T12:56:28.527Z,63.88
2022-12-23T12:58:55.151Z,29.77
2022-12-23T13:01:33.141Z,16.23
2022-12-23T13:04:26.511Z,6.65
2022-12-23T13:07:05.118Z,7.83
2022-12-23T13:10:00.808Z,6.80
2022-12-23T13:12:39.786Z,8.30
2022-12-23T13:15:19.073Z,7.30
2022-12-23T13:18:01.807Z,6.72
2022-12-23T13:20:36.685Z,7.28
2022-12-23T13:23:43.557Z,14.35
2022-12-23T13:26:29.419Z,10.00
2022-12-23T13:29:14.638Z,10.27
2022-12-23T13:31:43.898Z,10.65
2022-12-23T13:34:33.834Z,14.43
2022-12-23T13:37:00.488Z,7.50
2022-12-23T13:39:39.508Z,7.68
2022-12-23T13:42:12.390Z,7.55
2022-12-23T13:44:39.427Z,7.25
2022-12-23T13:47:44.029Z,6.32
2022-12-23T13:50:17.590Z,6.72
2022-12-23T13:55:57.850Z,6.18
2022-12-23T13:58:27.118Z,6.68
2022-12-23T14:01:21.042Z,6.65
2022-12-23T14:06:44.011Z,7.55
2022-12-23T14:09:16.114Z,18.77
2022-12-23T14:11:44.953Z,31.85
2022-12-23T14:14:21.519Z,8.57
2022-12-23T14:17:02.664Z,7.13
2022-12-23T14:19:38.282Z,8.98
2022-12-23T14:22:24.960Z,8.77
2022-12-23T14:25:20.880Z,11.05
2022-12-23T14:28:06.097Z,10.20
2022-12-23T14:30:42.632Z,11.32
2022-12-23T14:33:27.783Z,12.45
2022-12-23T14:36:13.033Z,14.05
2022-12-23T14:38:40.268Z,17.90
2022-12-23T14:41:23.080Z,23.25
2022-12-23T14:43:55.872Z,36.83
2022-12-23T14:46:31.128Z,57.85
2022-12-23T14:49:16.259Z,56.60
2022-12-23T14:51:45.461Z,56.05
2022-12-23T14:54:14.909Z,54.55
2022-12-23T14:56:42.055Z,62.42
2022-12-23T14:59:22.241Z,62.40
2022-12-23T15:01:55.429Z,66.60
2022-12-23T15:04:28.624Z,72.93
2022-12-23T15:07:13.366Z,71.85
2022-12-23T15:09:45.323Z,69.88
2022-12-23T15:12:38.819Z,48.90
2022-12-23T15:15:07.263Z,44.40
2022-12-23T15:17:36.771Z,43.80
2022-12-23T15:20:18.552Z,43.15
2022-12-23T15:22:46.225Z,48.03
2022-12-23T15:25:24.053Z,63.20
2022-12-23T15:28:00.862Z,60.60
2022-12-23T15:30:31.189Z,74.25
2022-12-23T15:33:01.732Z,71.60
2022-12-23T15:35:34.617Z,70.57
2022-12-23T15:38:02.868Z,76.93
2022-12-23T15:40:37.640Z,87.45
2022-12-23T15:43:20.166Z,58.83
2022-12-23T15:45:46.756Z,58.55
2022-12-23T15:48:24.141Z,83.40
2022-12-23T15:50:54.616Z,94.22
2022-12-23T15:53:21.276Z,88.25
2022-12-23T15:55:49.215Z,82.10
2022-12-23T15:58:21.225Z,62.78
2022-12-23T16:00:57.707Z,21.75
2022-12-23T16:03:40.307Z,32.35
2022-12-23T16:06:29.041Z,29.88
2022-12-23T16:09:06.735Z,32.00
2022-12-23T16:11:59.518Z,59.88
2022-12-23T16:14:40.744Z,44.85
2022-12-23T16:17:07.266Z,44.33
2022-12-23T16:20:21.372Z,40.35
2022-12-23T16:22:51.172Z,44.33
2022-12-23T16:25:23.049Z,44.53
2022-12-23T16:27:54.394Z,35.95
2022-12-23T16:30:25.822Z,37.88
2022-12-23T16:32:56.057Z,30.75
2022-12-23T16:35:34.717Z,33.40
2022-12-23T16:38:25.610Z,36.25
2022-12-23T16:40:57.170Z,35.90
2022-12-23T16:43:25.033Z,36.33
2022-12-23T16:45:55.499Z,34.60
2022-12-23T16:48:34.539Z,40.10
2022-12-23T16:51:04.062Z,42.45
2022-12-23T16:53:30.667Z,50.67
2022-12-23T16:56:00.923Z,55.65
2022-12-23T16:58:28.363Z,49.65
2022-12-23T17:00:55.945Z,41.13
2022-12-23T17:03:22.587Z,43.72
2022-12-23T17:05:49.436Z,53.13
2022-12-23T17:08:16.077Z,52.67
2022-12-23T17:10:44.768Z,56.28
2022-12-23T17:13:17.704Z,71.35
2022-12-23T17:15:45.081Z,37.30
2022-12-23T17:18:14.598Z,36.33
2022-12-23T17:20:43.362Z,44.95
2022-12-23T17:23:31.132Z,34.67
2022-12-23T17:25:58.060Z,39.08
2022-12-23T17:28:30.274Z,31.27
2022-12-23T17:30:57.022Z,23.85
2022-12-23T17:33:26.738Z,26.65
2022-12-23T17:35:53.578Z,18.80
2022-12-23T17:38:20.132Z,15.38
2022-12-23T17:40:47.239Z,22.48
2022-12-23T17:43:16.859Z,14.10
2022-12-23T17:45:44.482Z,14.55
2022-12-23T17:48:17.951Z,12.88
2022-12-23T17:50:47.820Z,9.45
2022-12-23T17:53:16.312Z,22.20
2022-12-23T17:55:43.295Z,16.75
2022-12-23T17:58:10.260Z,21.13
2022-12-23T18:00:38.278Z,24.88
2022-12-23T18:03:06.410Z,29.42
2022-12-23T18:05:35.744Z,34.35
2022-12-23T18:08:03.383Z,37.97
2022-12-23T18:10:37.262Z,53.22
2022-12-23T18:13:07.965Z,56.35
2022-12-23T18:15:40.673Z,49.63
2022-12-23T18:18:31.315Z,65.50
2022-12-23T18:21:05.602Z,42.72
2022-12-23T18:23:33.650Z,44.15
2022-12-23T18:26:00.840Z,44.65
2022-12-23T18:28:27.619Z,53.60
2022-12-23T18:30:57.715Z,56.65
2022-12-23T18:33:28.654Z,48.00
2022-12-23T18:35:55.741Z,42.33
2022-12-23T18:38:22.871Z,45.20
2022-12-23T18:40:52.803Z,43.30
2022-12-23T18:43:22.632Z,35.33
2022-12-23T18:45:53.199Z,32.75
2022-12-23T18:48:20.297Z,35.17
2022-12-23T18:50:47.041Z,31.70
2022-12-23T18:53:23.889Z,35.53
2022-12-23T18:55:52.501Z,38.65
2022-12-23T18:58:19.893Z,42.65
2022-12-23T19:00:47.872Z,51.40
2022-12-23T19:03:31.361Z,43.30
2022-12-23T19:08:27.675Z,28.00
2022-12-23T19:10:55.571Z,23.00
2022-12-23T19:13:22.375Z,21.75
2022-12-23T19:15:49.169Z,23.77
2022-12-23T19:18:21.358Z,25.20
2022-12-23T19:20:48.986Z,51.55
2022-12-23T19:23:15.866Z,43.80
2022-12-23T19:25:49.212Z,54.88
2022-12-23T19:28:22.051Z,40.67
2022-12-23T19:30:49.270Z,35.55
2022-12-23T19:33:16.316Z,31.52
2022-12-23T19:35:44.165Z,30.15
2022-12-23T19:38:12.349Z,36.20
2022-12-23T19:40:39.437Z,35.17
2022-12-23T19:43:06.088Z,40.05
2022-12-23T19:45:32.666Z,45.17
2022-12-23T19:47:59.391Z,36.85
2022-12-23T19:50:27.256Z,43.38
2022-12-23T19:52:56.339Z,38.80
2022-12-23T19:55:23.255Z,35.40
2022-12-23T19:57:49.870Z,31.52
2022-12-23T20:00:16.680Z,25.85
2022-12-23T20:02:43.460Z,23.02
2022-12-23T20:05:10.279Z,21.80
2022-12-23T20:07:37.388Z,18.70
2022-12-23T20:10:05.206Z,17.33
2022-12-23T20:12:31.926Z,15.00
2022-12-23T20:14:58.537Z,15.55
2022-12-23T20:17:25.127Z,13.02
2022-12-23T20:19:51.778Z,10.30
2022-12-23T20:22:18.394Z,20.80
2022-12-23T20:24:45.189Z,24.85
2022-12-23T20:27:14.801Z,17.08
2022-12-23T20:29:42.439Z,20.13
2022-12-23T20:32:09.104Z,16.30
2022-12-23T20:34:39.581Z,15.95
2022-12-23T20:37:07.113Z,16.02
2022-12-23T20:39:34.084Z,18.25
2022-12-23T20:42:00.637Z,23.35
2022-12-23T20:44:36.059Z,26.83
2022-12-23T20:47:03.963Z,31.10
2022-12-23T20:49:31.281Z,30.17
2022-12-23T20:51:57.913Z,34.22
2022-12-23T20:54:31.636Z,25.20
2022-12-23T20:56:59.571Z,28.27
2022-12-23T20:59:26.142Z,33.25
2022-12-23T21:01:52.897Z,22.27
2022-12-23T21:04:20.454Z,22.27
2022-12-23T21:06:47.150Z,23.40
2022-12-23T21:09:15.060Z,31.70
2022-12-23T21:11:44.047Z,20.88
2022-12-23T21:14:11.287Z,17.63
2022-12-23T21:16:38.661Z,75.07
2022-12-23T21:19:14.172Z,59.20
2022-12-23T21:21:40.897Z,56.88
2022-12-23T21:24:07.537Z,36.88
2022-12-23T21:26:35.579Z,31.33
2022-12-23T21:29:04.561Z,19.77
2022-12-23T21:31:33.028Z,19.50
2022-12-23T21:33:59.631Z,20.10
2022-12-23T21:36:30.986Z,21.15
2022-12-23T21:38:58.298Z,17.52
2022-12-23T21:41:28.371Z,24.05
2022-12-23T21:43:56.926Z,18.13
2022-12-23T21:46:24.345Z,14.55
2022-12-23T21:48:51.534Z,14.77
2022-12-23T21:51:21.608Z,14.88
2022-12-23T21:53:50.625Z,14.85
2022-12-23T21:56:19.834Z,15.40
2022-12-23T21:58:47.147Z,16.13
2022-12-23T22:01:16.231Z,14.25
2022-12-23T22:03:43.484Z,17.27
2022-12-23T22:06:16.007Z,21.40
2022-12-23T22:08:43.106Z,19.58
2022-12-23T22:11:12.499Z,17.85
2022-12-23T22:13:39.935Z,20.25
2022-12-23T22:16:11.987Z,22.73
2022-12-23T22:18:39.558Z,23.75
2022-12-23T22:21:07.833Z,22.67
2022-12-23T22:23:34.865Z,19.08
2022-12-23T22:26:01.620Z,21.20
2022-12-23T22:28:32.158Z,19.08
2022-12-23T22:31:08.387Z,22.60
2022-12-23T22:33:35.226Z,26.30
2022-12-23T22:36:01.889Z,42.30
2022-12-23T22:38:28.517Z,36.70
2022-12-23T22:40:55.139Z,47.33
2022-12-23T22:43:21.770Z,40.67
2022-12-23T22:45:55.906Z,38.95
2022-12-23T22:48:23.236Z,36.58
2022-12-23T22:50:49.833Z,35.17
2022-12-23T22:53:16.683Z,32.40
2022-12-23T22:55:43.292Z,28.08
2022-12-23T22:58:09.943Z,27.40
2022-12-23T23:00:36.605Z,25.63
2022-12-23T23:03:03.607Z,21.52
2022-12-23T23:05:30.299Z,19.52
2022-12-23T23:07:56.948Z,20.20
2022-12-23T23:10:23.507Z,20.27
2022-12-23T23:12:50.052Z,20.17
2022-12-23T23:15:16.894Z,21.83
2022-12-23T23:17:43.429Z,18.98
2022-12-23T23:20:10.204Z,17.13
2022-12-23T23:22:36.835Z,13.38
2022-12-23T23:25:03.793Z,11.48
2022-12-23T23:27:30.347Z,12.23
2022-12-23T23:29:57.003Z,11.82
2022-12-23T23:32:23.628Z,12.93
2022-12-23T23:34:50.234Z,11.48
2022-12-23T23:37:16.771Z,13.00
2022-12-23T23:39:43.415Z,10.75
2022-12-23T23:42:10.610Z,11.60
2022-12-23T23:44:37.211Z,14.90
2022-12-23T23:47:03.871Z,16.63
2022-12-23T23:49:30.432Z,18.23
2022-12-23T23:51:56.989Z,18.02
2022-12-23T23:54:23.619Z,18.60
2022-12-23T23:56:50.196Z,19.52
2022-12-23T23:59:16.750Z,20.80
